createdAt,value
2023-03-25T06:04:00.393Z,4770.2
2023-03-25T06:05:15.589Z,5114.7
2023-03-25T06:06:00.503Z,5459.1
2023-03-25T06:07:00.296Z,5803.6
2023-03-25T06:08:00.303Z,6214.5
2023-03-25T06:33:01.090Z,19138.8
2023-03-25T06:34:00.986Z,19557.4
2023-03-25T06:35:01.260Z,21357.8
2023-03-25T06:36:01.001Z,22643.9
2023-03-25T06:37:00.979Z,23608.4
2023-03-25T06:38:00.982Z,23932.2
2023-03-25T06:39:00.982Z,24191.3
2023-03-25T06:40:03.165Z,25031.4
2023-03-25T06:41:01.009Z,25731.4
2023-03-25T06:42:01.057Z,26323.8
2023-03-25T06:43:01.092Z,26973.1
2023-03-25T06:44:01.052Z,27535.8
2023-03-25T06:47:00.986Z,31141.8
2023-03-25T06:48:01.290Z,31795.5
2023-03-25T06:49:01.051Z,32449.3
2023-03-25T06:52:00.987Z,31617.5
2023-03-25T06:53:00.979Z,32026.6
2023-03-25T06:54:00.985Z,32435.7
2023-03-25T06:55:01.283Z,33358.1
2023-03-25T06:56:00.984Z,34280.5
2023-03-25T06:57:01.032Z,35202.9
2023-03-25T06:58:00.985Z,35138.7
2023-03-25T06:59:00.984Z,35074.4
2023-03-25T07:00:04.825Z,35541.9
2023-03-25T07:02:02.182Z,36476.8
2023-03-25T07:03:01.015Z,37808.5
2023-03-25T07:04:00.984Z,39140.1
2023-03-25T07:05:01.977Z,40530.3
2023-03-25T07:07:05.990Z,43310.7
2023-03-25T07:08:00.986Z,44316.2
2023-03-25T07:09:00.998Z,45321.7
2023-03-25T07:10:01.209Z,45681.9
2023-03-25T07:11:01.024Z,46042.1
2023-03-25T07:12:01.019Z,46402.3
2023-03-25T07:13:00.989Z,48474.6
2023-03-25T07:14:00.995Z,50546.9
2023-03-25T07:17:00.992Z,54045.9
2023-03-25T07:18:01.051Z,54842.9
2023-03-25T07:19:01.003Z,55639.9
2023-03-25T07:20:01.237Z,56264.0
2023-03-25T07:21:06.265Z,56888.1
2023-03-25T07:22:00.995Z,57512.1
2023-03-25T07:23:00.995Z,58066.1
2023-03-25T07:24:01.075Z,58620.1
2023-03-25T07:27:01.020Z,56203.3
2023-03-25T07:28:00.999Z,54543.4
2023-03-25T07:29:00.999Z,52883.5
2023-03-25T07:32:01.131Z,48027.9
2023-03-25T07:33:01.078Z,45231.5
2023-03-25T07:34:01.098Z,42435.2
2023-03-25T07:35:01.360Z,40150.3
2023-03-25T07:36:01.027Z,37865.5
2023-03-25T07:37:06.016Z,35580.6
2023-03-25T07:38:00.994Z,34201.5
2023-03-25T07:39:01.001Z,32822.3
2023-03-25T07:40:07.355Z,32549.9
2023-03-25T07:41:00.998Z,32277.4
2023-03-25T07:42:01.048Z,32004.9
2023-03-25T07:43:05.998Z,31567.9
2023-03-25T07:44:01.253Z,31130.9
2023-03-25T07:47:01.032Z,31929.3
2023-03-25T07:48:01.012Z,34026.7
2023-03-25T07:49:01.000Z,36124.1
2023-03-25T07:50:01.850Z,39017.0
2023-03-25T07:52:01.046Z,44802.7
2023-03-25T07:53:00.999Z,46256.2
2023-03-25T07:54:05.126Z,47709.7
2023-03-25T07:57:01.057Z,53449.1
2023-03-25T07:58:01.065Z,55408.8
2023-03-25T07:59:01.003Z,57368.5
2023-03-25T08:02:02.171Z,57025.1
2023-03-25T08:03:01.045Z,56905.4
2023-03-25T08:04:01.051Z,56785.7
2023-03-25T08:05:04.248Z,54492.4
2023-03-25T08:06:01.032Z,52199.1
2023-03-25T08:07:01.146Z,49905.9
2023-03-25T08:08:01.014Z,48418.0
2023-03-25T08:09:01.008Z,46930.1
2023-03-25T08:10:02.621Z,45017.9
2023-03-25T08:11:01.003Z,43105.6
2023-03-25T08:12:01.126Z,41193.3
2023-03-25T08:13:01.008Z,40853.6
2023-03-25T08:14:01.000Z,40513.9
2023-03-25T08:15:02.822Z,42284.5
2023-03-25T08:17:01.041Z,45825.9
2023-03-25T08:18:01.017Z,44734.9
2023-03-25T08:19:01.010Z,43644.0
2023-03-25T08:20:01.556Z,43909.3
2023-03-25T08:21:01.271Z,44174.7
2023-03-25T08:22:01.230Z,44440.0
2023-03-25T08:23:01.001Z,44888.9
2023-03-25T08:24:01.012Z,45337.9
2023-03-25T08:25:01.238Z,46501.7
2023-03-25T08:26:01.011Z,47665.6
2023-03-25T08:27:01.021Z,48829.5
2023-03-25T08:28:01.281Z,48567.3
2023-03-25T08:29:01.050Z,48305.2
2023-03-25T08:32:01.007Z,45812.2
2023-03-25T08:33:06.033Z,47892.9
2023-03-25T08:34:01.005Z,49973.7
2023-03-25T08:35:01.223Z,50362.9
2023-03-25T08:36:01.085Z,50752.2
2023-03-25T08:37:01.001Z,51141.5
2023-03-25T08:38:01.025Z,52738.3
2023-03-25T08:39:01.005Z,54335.1
2023-03-25T08:40:02.183Z,55106.0
2023-03-25T08:41:01.008Z,55876.9
2023-03-25T08:42:01.073Z,56647.9
2023-03-25T08:43:01.113Z,57147.8
2023-03-25T08:44:01.074Z,57647.7
2023-03-25T08:47:01.028Z,60140.7
2023-03-25T08:52:01.028Z,64275.9
2023-03-25T08:53:06.070Z,64185.5
2023-03-25T08:54:06.018Z,64095.0
2023-03-25T08:58:01.286Z,64334.1
2023-03-25T08:59:06.049Z,64573.3
2023-03-25T09:05:16.133Z,63051.4
2023-03-25T09:06:16.041Z,61529.5
2023-03-25T09:07:16.300Z,60007.7
2023-03-25T09:08:02.115Z,57352.7
2023-03-25T09:09:01.055Z,54697.7
2023-03-25T09:30:01.210Z,26470.0
2023-03-25T09:33:00.359Z,25580.0
2023-03-25T09:34:00.214Z,25046.0
2023-03-25T09:35:00.434Z,29446.3
2023-03-25T09:36:00.300Z,32589.4
2023-03-25T09:37:00.304Z,34946.8
2023-03-25T09:38:01.304Z,38345.4
2023-03-25T09:39:00.334Z,41064.4
2023-03-25T09:42:00.273Z,46711.5
2023-03-25T09:43:00.210Z,48056.0
2023-03-25T09:44:00.233Z,49221.3
2023-03-25T09:45:13.207Z,51825.6
2023-03-25T09:47:00.252Z,57034.3
2023-03-25T09:48:00.371Z,59875.9
2023-03-25T09:49:00.281Z,62717.6
2023-03-25T09:50:02.622Z,63656.7
2023-03-25T09:51:00.230Z,64595.9
2023-03-25T09:52:00.226Z,65535.0
2023-03-25T10:00:02.212Z,65535.0
2023-03-25T10:15:01.855Z,65535.0
2023-03-25T10:20:00.933Z,65107.9
2023-03-25T10:21:00.303Z,64680.9
2023-03-25T10:22:00.297Z,64253.8
2023-03-25T10:25:01.179Z,63938.9
2023-03-25T10:26:00.298Z,63623.9
2023-03-25T10:27:00.250Z,63309.0
2023-03-25T10:28:00.308Z,62695.1
2023-03-25T10:29:00.513Z,62081.1
2023-03-25T10:32:00.296Z,60687.5
2023-03-25T10:35:00.581Z,61114.6
2023-03-25T10:36:00.312Z,61541.7
2023-03-25T10:37:01.264Z,61968.7
2023-03-25T10:40:08.755Z,62283.7
2023-03-25T10:41:00.546Z,62598.6
2023-03-25T10:42:00.300Z,62913.5
2023-03-25T10:43:00.297Z,63527.5
2023-03-25T10:44:00.240Z,64141.4
2023-03-25T10:45:01.156Z,64605.9
2023-03-25T10:46:00.366Z,65070.5
2023-03-25T10:47:00.238Z,65535.0
2023-03-25T11:02:01.310Z,63761.6
2023-03-25T11:03:00.300Z,62558.9
2023-03-25T11:04:00.319Z,61356.3
2023-03-25T11:06:00.622Z,59752.3
2023-03-25T11:07:00.308Z,58950.3
2023-03-25T11:08:00.250Z,58806.5
2023-03-25T11:09:00.307Z,58662.7
2023-03-25T11:15:07.431Z,59253.8
2023-03-25T11:16:00.260Z,59844.9
2023-03-25T11:17:01.426Z,60436.1
2023-03-25T11:18:00.359Z,61638.7
2023-03-25T11:19:00.248Z,62841.4
2023-03-25T11:20:00.799Z,63643.4
2023-03-25T11:21:00.246Z,64445.4
2023-03-25T11:22:00.576Z,65247.4
2023-03-25T11:23:00.316Z,65391.2
2023-03-25T11:24:00.252Z,65535.0
2023-03-25T11:45:01.737Z,65535.0
2023-03-25T12:15:07.184Z,65535.0
2023-03-25T12:30:01.375Z,65535.0
2023-03-25T12:45:01.566Z,65535.0
2023-03-25T13:15:06.475Z,65535.0
2023-03-25T13:41:01.884Z,64181.9
2023-03-25T13:42:00.575Z,62828.7
2023-03-25T13:57:00.599Z,65535.0
2023-03-25T14:15:01.253Z,65535.0
2023-03-25T14:30:02.280Z,65535.0
2023-03-25T14:45:01.901Z,65535.0
2023-03-25T14:58:00.332Z,64940.7
2023-03-25T14:59:00.330Z,64346.5
2023-03-25T15:00:04.581Z,63752.2
2023-03-25T15:13:00.429Z,64346.5
2023-03-25T15:14:00.314Z,64940.7
2023-03-25T15:15:01.556Z,65535.0
2023-03-25T15:26:00.315Z,64405.4
2023-03-25T15:27:00.374Z,63275.8
2023-03-25T15:28:00.378Z,61324.5
2023-03-25T15:29:00.397Z,59373.3
2023-03-25T15:30:01.788Z,57422.0
2023-03-25T15:31:00.381Z,57048.6
2023-03-25T15:32:00.765Z,56675.2
2023-03-25T15:41:00.530Z,57804.8
2023-03-25T15:42:00.309Z,58934.4
2023-03-25T15:43:00.312Z,60885.7
2023-03-25T15:44:01.109Z,62836.9
2023-03-25T15:45:01.023Z,64788.2
2023-03-25T15:46:01.531Z,64632.6
2023-03-25T15:47:00.314Z,64477.0
2023-03-25T15:51:00.545Z,64314.5
2023-03-25T15:52:00.320Z,64151.9
2023-03-25T15:53:00.321Z,63810.2
2023-03-25T15:54:00.344Z,63468.5
2023-03-25T15:55:00.332Z,63126.7
2023-03-25T15:56:00.523Z,62486.1
2023-03-25T15:57:00.400Z,61845.5
2023-03-25T15:58:00.318Z,60675.8
2023-03-25T15:59:00.351Z,59506.1
2023-03-25T16:00:00.950Z,58336.3
2023-03-25T16:01:01.448Z,58865.3
2023-03-25T16:02:00.321Z,59394.3
2023-03-25T16:03:00.370Z,59251.3
2023-03-25T16:04:00.725Z,59108.3
2023-03-25T16:05:00.328Z,58965.3
2023-03-25T16:06:01.551Z,59127.9
2023-03-25T16:07:00.333Z,59290.4
2023-03-25T16:08:00.332Z,59632.1
2023-03-25T16:09:00.369Z,59973.9
2023-03-25T16:10:00.943Z,60315.6
2023-03-25T16:11:00.987Z,59815.3
2023-03-25T16:12:00.338Z,59315.1
2023-03-25T16:13:00.327Z,58600.2
2023-03-25T16:14:00.371Z,57885.3
2023-03-25T16:15:00.951Z,57170.5
2023-03-25T16:16:00.523Z,54618.5
2023-03-25T16:17:00.404Z,52066.6
2023-03-25T16:18:00.348Z,51395.0
2023-03-25T16:19:00.362Z,50723.4
2023-03-25T16:20:00.936Z,50051.8
2023-03-25T16:21:01.445Z,48154.3
2023-03-25T16:22:00.325Z,46256.9
2023-03-25T16:23:00.323Z,43813.5
2023-03-25T16:24:00.344Z,41370.2
2023-03-25T16:25:00.888Z,38926.9
2023-03-25T16:26:00.568Z,37084.7
2023-03-25T16:27:00.392Z,35242.5
2023-03-25T16:28:00.330Z,33775.9
2023-03-25T16:29:00.401Z,32309.3
2023-03-25T16:30:01.057Z,30842.7
2023-03-25T16:31:01.233Z,29897.3
2023-03-25T16:32:00.335Z,28951.9
2023-03-25T16:33:00.385Z,26207.1
2023-03-25T16:34:00.366Z,23462.4
2023-03-25T16:35:00.406Z,20717.7
2023-03-25T16:36:01.249Z,18948.7
2023-03-25T16:37:00.397Z,17179.8
2023-03-25T16:38:00.333Z,15852.5
2023-03-25T16:39:00.369Z,14525.1
2023-03-25T16:40:01.254Z,13197.8
2023-03-25T16:41:02.587Z,12358.7
2023-03-25T16:42:00.336Z,11519.5
2023-03-25T16:43:00.333Z,11024.1
2023-03-25T16:44:00.365Z,10528.6
2023-03-25T16:45:00.887Z,10033.1
2023-03-25T16:46:01.425Z,9736.1
2023-03-25T16:47:00.326Z,9439.1
2023-03-25T16:48:00.411Z,9642.4
2023-03-25T16:49:00.405Z,9845.7
2023-03-25T16:51:00.537Z,10571.7
2023-03-25T16:52:05.329Z,11094.5
2023-03-25T16:53:00.342Z,11608.2
2023-03-25T16:54:01.430Z,12121.9
2023-03-25T16:55:01.206Z,12635.5
2023-03-25T16:56:00.535Z,13334.3
2023-03-25T16:57:00.381Z,14033.0
2023-03-25T16:58:00.324Z,14504.3
2023-03-25T16:59:05.363Z,14975.5
2023-03-25T17:01:01.890Z,15675.5
2023-03-25T17:02:00.326Z,15904.3
2023-03-25T17:03:00.449Z,15711.3
2023-03-25T17:04:01.416Z,15518.3
2023-03-25T17:06:01.565Z,15316.6
2023-03-25T17:07:00.334Z,15307.9
2023-03-25T17:08:00.327Z,15306.7
2023-03-25T17:09:00.331Z,15305.4
2023-03-25T17:10:01.108Z,15304.1
2023-03-25T17:11:01.310Z,15132.0
2023-03-25T17:12:00.335Z,14959.9
2023-03-25T17:13:00.572Z,14815.5
2023-03-25T17:14:00.328Z,14671.2
2023-03-25T17:15:05.912Z,14526.9
2023-03-25T17:16:00.749Z,14642.3
2023-03-25T17:17:00.332Z,14757.7
2023-03-25T17:18:00.372Z,14786.3
2023-03-25T17:19:00.598Z,14814.9
2023-03-25T17:20:01.478Z,14843.5
2023-03-25T17:21:01.600Z,14318.2
2023-03-25T17:22:00.331Z,13792.9
2023-03-25T17:23:00.344Z,13249.7
2023-03-25T17:24:00.335Z,12706.4
2023-03-25T17:25:02.023Z,12163.1
2023-03-25T17:26:01.078Z,11409.3
2023-03-25T17:27:00.340Z,10655.4
2023-03-25T17:28:00.343Z,10060.6
2023-03-25T17:29:00.618Z,9465.8
2023-03-25T17:30:01.620Z,8871.0
2023-03-25T17:31:00.552Z,8203.7
2023-03-25T17:32:00.343Z,7536.5
2023-03-25T17:33:00.368Z,6971.1
2023-03-25T17:34:01.369Z,6405.8
2023-03-25T17:35:00.936Z,5840.5
2023-03-25T17:36:00.598Z,5364.8
2023-03-25T17:37:00.437Z,4889.1
2023-03-25T17:38:00.340Z,4488.1
2023-03-25T17:39:01.963Z,4087.1
2023-03-25T17:40:00.379Z,3686.1
2023-03-25T17:41:00.548Z,3518.1
2023-03-25T17:42:00.622Z,3350.0
2023-03-25T17:43:00.348Z,3229.7
2023-03-25T17:44:00.335Z,3109.3
2023-03-25T17:46:01.441Z,2831.7
2023-03-25T17:47:00.402Z,2674.3
2023-03-25T17:48:00.378Z,2452.5
2023-03-25T17:49:00.342Z,2230.7
2023-03-25T17:50:00.469Z,2008.9
2023-03-25T17:51:00.549Z,1832.4
2023-03-25T17:52:00.339Z,1655.9
2023-03-25T17:53:00.374Z,1518.2
2023-03-25T17:54:00.346Z,1380.5
2023-03-25T17:55:00.999Z,1242.9
2023-03-25T17:56:01.588Z,1119.1
2023-03-25T17:57:00.395Z,995.4
2023-03-25T17:58:00.345Z,893.7
2023-03-25T17:59:00.355Z,791.9
2023-03-25T18:01:15.353Z,615.9
2023-03-25T18:02:15.464Z,541.7
2023-03-25T18:03:00.581Z,491.5
2023-03-25T18:04:00.339Z,441.4
